sensor_id;sensor_type;location;lat;lon;timestamp;temperature;humidity
58849;DHT22;44619;51.022;6.818;2023-03-13T00:00:07;10.80;66.30
58849;DHT22;44619;51.022;6.818;2023-03-13T00:02:34;10.80;66.50
58849;DHT22;44619;51.022;6.818;2023-03-13T00:04:59;10.80;66.60
58849;DHT22;44619;51.022;6.818;2023-03-13T00:07:25;10.70;66.90
58849;DHT22;44619;51.022;6.818;2023-03-13T00:09:50;10.80;66.60
58849;DHT22;44619;51.022;6.818;2023-03-13T00:12:16;10.90;66.60
58849;DHT22;44619;51.022;6.818;2023-03-13T00:14:42;10.90;66.40
58849;DHT22;44619;51.022;6.818;2023-03-13T00:17:07;10.80;66.60
58849;DHT22;44619;51.022;6.818;2023-03-13T00:19:33;10.90;66.40
58849;DHT22;44619;51.022;6.818;2023-03-13T00:21:58;10.90;66.50
58849;DHT22;44619;51.022;6.818;2023-03-13T00:24:24;11.00;66.30
58849;DHT22;44619;51.022;6.818;2023-03-13T00:26:49;10.80;67.00
58849;DHT22;44619;51.022;6.818;2023-03-13T00:29:15;10.90;67.10
58849;DHT22;44619;51.022;6.818;2023-03-13T00:31:40;10.90;66.70
58849;DHT22;44619;51.022;6.818;2023-03-13T00:34:06;11.00;66.80
58849;DHT22;44619;51.022;6.818;2023-03-13T00:36:34;11.00;66.90
58849;DHT22;44619;51.022;6.818;2023-03-13T00:39:00;10.90;67.00
58849;DHT22;44619;51.022;6.818;2023-03-13T00:41:26;11.00;67.00
58849;DHT22;44619;51.022;6.818;2023-03-13T00:43:52;11.00;66.90
58849;DHT22;44619;51.022;6.818;2023-03-13T00:46:19;11.00;66.90
58849;DHT22;44619;51.022;6.818;2023-03-13T00:48:45;11.00;67.00
58849;DHT22;44619;51.022;6.818;2023-03-13T00:51:10;10.90;67.00
58849;DHT22;44619;51.022;6.818;2023-03-13T00:53:36;11.00;66.90
58849;DHT22;44619;51.022;6.818;2023-03-13T00:56:03;11.00;66.70
58849;DHT22;44619;51.022;6.818;2023-03-13T00:58:29;10.90;66.90
58849;DHT22;44619;51.022;6.818;2023-03-13T01:00:55;10.90;66.90
58849;DHT22;44619;51.022;6.818;2023-03-13T01:03:21;10.90;67.10
58849;DHT22;44619;51.022;6.818;2023-03-13T01:05:56;10.90;67.70
58849;DHT22;44619;51.022;6.818;2023-03-13T01:08:22;11.00;66.80
58849;DHT22;44619;51.022;6.818;2023-03-13T01:10:47;11.00;66.90
58849;DHT22;44619;51.022;6.818;2023-03-13T01:13:13;11.00;66.70
58849;DHT22;44619;51.022;6.818;2023-03-13T01:15:39;10.90;66.90
58849;DHT22;44619;51.022;6.818;2023-03-13T01:18:08;10.90;67.00
58849;DHT22;44619;51.022;6.818;2023-03-13T01:20:37;10.90;67.00
58849;DHT22;44619;51.022;6.818;2023-03-13T01:23:02;10.90;67.10
58849;DHT22;44619;51.022;6.818;2023-03-13T01:25:28;10.90;67.20
58849;DHT22;44619;51.022;6.818;2023-03-13T01:27:53;11.00;67.30
58849;DHT22;44619;51.022;6.818;2023-03-13T01:30:19;11.00;67.30
58849;DHT22;44619;51.022;6.818;2023-03-13T01:32:44;11.00;67.00
58849;DHT22;44619;51.022;6.818;2023-03-13T01:35:10;11.00;67.20
58849;DHT22;44619;51.022;6.818;2023-03-13T01:37:36;11.10;67.10
58849;DHT22;44619;51.022;6.818;2023-03-13T01:40:01;11.10;67.10
58849;DHT22;44619;51.022;6.818;2023-03-13T01:42:28;11.10;67.30
58849;DHT22;44619;51.022;6.818;2023-03-13T01:44:54;11.10;67.80
58849;DHT22;44619;51.022;6.818;2023-03-13T01:47:20;11.10;68.10
58849;DHT22;44619;51.022;6.818;2023-03-13T01:49:46;11.10;68.30
58849;DHT22;44619;51.022;6.818;2023-03-13T01:52:14;11.10;68.40
58849;DHT22;44619;51.022;6.818;2023-03-13T01:54:41;11.20;68.70
58849;DHT22;44619;51.022;6.818;2023-03-13T01:57:12;11.20;68.80
58849;DHT22;44619;51.022;6.818;2023-03-13T01:59:48;11.20;69.00
58849;DHT22;44619;51.022;6.818;2023-03-13T02:02:15;11.20;69.10
58849;DHT22;44619;51.022;6.818;2023-03-13T02:04:44;11.20;69.00
58849;DHT22;44619;51.022;6.818;2023-03-13T02:07:13;11.20;69.20
58849;DHT22;44619;51.022;6.818;2023-03-13T02:09:40;11.20;69.30
58849;DHT22;44619;51.022;6.818;2023-03-13T02:12:12;11.20;69.40
58849;DHT22;44619;51.022;6.818;2023-03-13T02:14:40;11.20;69.40
58849;DHT22;44619;51.022;6.818;2023-03-13T02:17:06;11.20;69.40
58849;DHT22;44619;51.022;6.818;2023-03-13T02:22:19;11.20;69.90
58849;DHT22;44619;51.022;6.818;2023-03-13T02:27:14;11.20;70.40
58849;DHT22;44619;51.022;6.818;2023-03-13T02:29:40;11.20;70.60
58849;DHT22;44619;51.022;6.818;2023-03-13T02:32:06;11.20;70.70
58849;DHT22;44619;51.022;6.818;2023-03-13T02:34:32;11.30;70.60
58849;DHT22;44619;51.022;6.818;2023-03-13T02:36:59;11.30;70.70
58849;DHT22;44619;51.022;6.818;2023-03-13T02:39:25;11.30;71.50
58849;DHT22;44619;51.022;6.818;2023-03-13T02:41:51;11.30;71.70
58849;DHT22;44619;51.022;6.818;2023-03-13T02:44:17;11.30;71.60
58849;DHT22;44619;51.022;6.818;2023-03-13T02:46:44;11.30;71.70
58849;DHT22;44619;51.022;6.818;2023-03-13T02:49:20;11.30;72.00
58849;DHT22;44619;51.022;6.818;2023-03-13T02:51:46;11.20;72.00
58849;DHT22;44619;51.022;6.818;2023-03-13T02:54:19;11.20;71.90
58849;DHT22;44619;51.022;6.818;2023-03-13T02:56:46;11.20;71.90
58849;DHT22;44619;51.022;6.818;2023-03-13T02:59:13;11.20;71.70
58849;DHT22;44619;51.022;6.818;2023-03-13T03:01:39;11.20;71.50
58849;DHT22;44619;51.022;6.818;2023-03-13T03:04:04;11.30;71.70
58849;DHT22;44619;51.022;6.818;2023-03-13T03:06:30;11.30;71.50
58849;DHT22;44619;51.022;6.818;2023-03-13T03:08:55;11.30;71.40
58849;DHT22;44619;51.022;6.818;2023-03-13T03:11:24;11.20;71.50
58849;DHT22;44619;51.022;6.818;2023-03-13T03:13:58;11.20;71.30
58849;DHT22;44619;51.022;6.818;2023-03-13T03:16:23;11.20;71.60
58849;DHT22;44619;51.022;6.818;2023-03-13T03:18:49;11.20;71.10
58849;DHT22;44619;51.022;6.818;2023-03-13T03:21:14;11.30;71.40
58849;DHT22;44619;51.022;6.818;2023-03-13T03:23:40;11.30;71.00
58849;DHT22;44619;51.022;6.818;2023-03-13T03:26:08;11.30;71.00
58849;DHT22;44619;51.022;6.818;2023-03-13T03:28:40;11.30;70.90
58849;DHT22;44619;51.022;6.818;2023-03-13T03:31:06;11.40;70.60
58849;DHT22;44619;51.022;6.818;2023-03-13T03:33:32;11.40;70.50
58849;DHT22;44619;51.022;6.818;2023-03-13T03:36:02;11.40;70.60
58849;DHT22;44619;51.022;6.818;2023-03-13T03:38:27;11.40;70.30
58849;DHT22;44619;51.022;6.818;2023-03-13T03:40:53;11.40;70.20
58849;DHT22;44619;51.022;6.818;2023-03-13T03:43:18;11.40;69.90
58849;DHT22;44619;51.022;6.818;2023-03-13T03:45:47;11.40;70.30
58849;DHT22;44619;51.022;6.818;2023-03-13T03:48:13;11.40;70.20
58849;DHT22;44619;51.022;6.818;2023-03-13T03:50:38;11.40;70.40
58849;DHT22;44619;51.022;6.818;2023-03-13T03:53:03;11.40;70.40
58849;DHT22;44619;51.022;6.818;2023-03-13T03:55:29;11.50;70.20
58849;DHT22;44619;51.022;6.818;2023-03-13T03:57:54;11.50;70.20
58849;DHT22;44619;51.022;6.818;2023-03-13T04:00:20;11.50;70.20
58849;DHT22;44619;51.022;6.818;2023-03-13T04:02:46;11.50;70.30
58849;DHT22;44619;51.022;6.818;2023-03-13T04:05:11;11.50;70.30
58849;DHT22;44619;51.022;6.818;2023-03-13T04:07:37;11.50;70.40
58849;DHT22;44619;51.022;6.818;2023-03-13T04:10:06;11.50;70.40
58849;DHT22;44619;51.022;6.818;2023-03-13T04:12:31;11.50;70.30
58849;DHT22;44619;51.022;6.818;2023-03-13T04:15:00;11.50;70.40
58849;DHT22;44619;51.022;6.818;2023-03-13T04:17:25;11.50;70.50
58849;DHT22;44619;51.022;6.818;2023-03-13T04:19:51;11.50;70.70
58849;DHT22;44619;51.022;6.818;2023-03-13T04:22:17;11.50;70.60
58849;DHT22;44619;51.022;6.818;2023-03-13T04:24:42;11.60;70.60
58849;DHT22;44619;51.022;6.818;2023-03-13T04:27:08;11.60;70.60
58849;DHT22;44619;51.022;6.818;2023-03-13T04:29:33;11.60;70.60
58849;DHT22;44619;51.022;6.818;2023-03-13T04:31:59;11.60;71.40
58849;DHT22;44619;51.022;6.818;2023-03-13T04:34:25;11.60;70.60
58849;DHT22;44619;51.022;6.818;2023-03-13T04:36:51;11.60;70.60
58849;DHT22;44619;51.022;6.818;2023-03-13T04:39:16;11.60;70.60
58849;DHT22;44619;51.022;6.818;2023-03-13T04:41:42;11.60;70.70
58849;DHT22;44619;51.022;6.818;2023-03-13T04:44:07;11.60;70.80
58849;DHT22;44619;51.022;6.818;2023-03-13T04:46:33;11.60;70.80
58849;DHT22;44619;51.022;6.818;2023-03-13T04:48:58;11.60;70.80
58849;DHT22;44619;51.022;6.818;2023-03-13T04:51:24;11.60;70.90
58849;DHT22;44619;51.022;6.818;2023-03-13T04:53:50;11.60;70.90
58849;DHT22;44619;51.022;6.818;2023-03-13T04:56:20;11.60;70.80
58849;DHT22;44619;51.022;6.818;2023-03-13T04:58:46;11.60;70.90
58849;DHT22;44619;51.022;6.818;2023-03-13T05:01:11;11.60;70.80
58849;DHT22;44619;51.022;6.818;2023-03-13T05:03:37;11.70;70.80
58849;DHT22;44619;51.022;6.818;2023-03-13T05:06:02;11.70;70.70
58849;DHT22;44619;51.022;6.818;2023-03-13T05:08:28;11.70;70.80
58849;DHT22;44619;51.022;6.818;2023-03-13T05:10:53;11.70;70.70
58849;DHT22;44619;51.022;6.818;2023-03-13T05:13:19;11.70;70.70
58849;DHT22;44619;51.022;6.818;2023-03-13T05:15:53;11.70;70.70
58849;DHT22;44619;51.022;6.818;2023-03-13T05:18:18;11.70;71.50
58849;DHT22;44619;51.022;6.818;2023-03-13T05:20:44;11.70;70.60
58849;DHT22;44619;51.022;6.818;2023-03-13T05:23:09;11.70;70.50
58849;DHT22;44619;51.022;6.818;2023-03-13T05:25:35;11.80;70.60
58849;DHT22;44619;51.022;6.818;2023-03-13T05:28:06;11.70;70.60
58849;DHT22;44619;51.022;6.818;2023-03-13T05:30:32;11.80;70.70
58849;DHT22;44619;51.022;6.818;2023-03-13T05:32:57;11.80;70.80
58849;DHT22;44619;51.022;6.818;2023-03-13T05:35:23;11.80;71.00
58849;DHT22;44619;51.022;6.818;2023-03-13T05:37:48;11.80;71.10
58849;DHT22;44619;51.022;6.818;2023-03-13T05:40:14;11.80;71.20
58849;DHT22;44619;51.022;6.818;2023-03-13T05:42:40;11.80;71.30
58849;DHT22;44619;51.022;6.818;2023-03-13T05:45:05;11.80;71.30
58849;DHT22;44619;51.022;6.818;2023-03-13T05:47:33;11.90;71.50
58849;DHT22;44619;51.022;6.818;2023-03-13T05:49:58;11.90;71.40
58849;DHT22;44619;51.022;6.818;2023-03-13T05:52:24;11.90;71.40
58849;DHT22;44619;51.022;6.818;2023-03-13T05:54:49;11.80;71.60
58849;DHT22;44619;51.022;6.818;2023-03-13T05:57:15;11.90;71.40
58849;DHT22;44619;51.022;6.818;2023-03-13T05:59:40;11.90;71.30
58849;DHT22;44619;51.022;6.818;2023-03-13T06:02:06;11.90;71.10
58849;DHT22;44619;51.022;6.818;2023-03-13T06:04:31;11.90;71.10
58849;DHT22;44619;51.022;6.818;2023-03-13T06:06:57;11.90;71.10
58849;DHT22;44619;51.022;6.818;2023-03-13T06:09:23;11.90;70.90
58849;DHT22;44619;51.022;6.818;2023-03-13T06:11:48;11.90;71.00
58849;DHT22;44619;51.022;6.818;2023-03-13T06:14:14;11.90;70.90
58849;DHT22;44619;51.022;6.818;2023-03-13T06:16:43;11.90;70.80
58849;DHT22;44619;51.022;6.818;2023-03-13T06:19:08;12.00;70.80
58849;DHT22;44619;51.022;6.818;2023-03-13T06:21:34;12.00;70.70
58849;DHT22;44619;51.022;6.818;2023-03-13T06:23:59;12.00;70.70
58849;DHT22;44619;51.022;6.818;2023-03-13T06:26:25;12.00;70.70
58849;DHT22;44619;51.022;6.818;2023-03-13T06:28:53;12.10;70.60
58849;DHT22;44619;51.022;6.818;2023-03-13T06:31:19;12.00;70.60
58849;DHT22;44619;51.022;6.818;2023-03-13T06:33:44;12.00;70.90
58849;DHT22;44619;51.022;6.818;2023-03-13T06:36:10;12.00;71.40
58849;DHT22;44619;51.022;6.818;2023-03-13T06:38:35;12.00;70.80
58849;DHT22;44619;51.022;6.818;2023-03-13T06:41:01;12.10;70.80
58849;DHT22;44619;51.022;6.818;2023-03-13T06:43:27;12.00;71.10
58849;DHT22;44619;51.022;6.818;2023-03-13T06:45:52;12.00;71.40
58849;DHT22;44619;51.022;6.818;2023-03-13T06:48:19;12.10;71.70
58849;DHT22;44619;51.022;6.818;2023-03-13T06:50:47;12.00;71.90
58849;DHT22;44619;51.022;6.818;2023-03-13T06:53:17;12.00;72.30
58849;DHT22;44619;51.022;6.818;2023-03-13T06:55:43;12.10;72.70
58849;DHT22;44619;51.022;6.818;2023-03-13T06:58:09;12.10;72.70
58849;DHT22;44619;51.022;6.818;2023-03-13T07:00:34;12.10;73.90
58849;DHT22;44619;51.022;6.818;2023-03-13T07:03:00;12.10;73.40
58849;DHT22;44619;51.022;6.818;2023-03-13T07:05:25;12.20;74.50
58849;DHT22;44619;51.022;6.818;2023-03-13T07:07:51;12.20;74.50
58849;DHT22;44619;51.022;6.818;2023-03-13T07:10:17;12.20;74.70
58849;DHT22;44619;51.022;6.818;2023-03-13T07:12:42;12.20;74.80
58849;DHT22;44619;51.022;6.818;2023-03-13T07:15:09;12.20;74.70
58849;DHT22;44619;51.022;6.818;2023-03-13T07:17:34;12.20;74.90
58849;DHT22;44619;51.022;6.818;2023-03-13T07:20:00;12.30;75.10
58849;DHT22;44619;51.022;6.818;2023-03-13T07:22:26;12.30;75.20
58849;DHT22;44619;51.022;6.818;2023-03-13T07:24:51;12.40;75.30
58849;DHT22;44619;51.022;6.818;2023-03-13T07:27:17;12.40;75.30
58849;DHT22;44619;51.022;6.818;2023-03-13T07:29:45;12.40;76.60
58849;DHT22;44619;51.022;6.818;2023-03-13T07:32:10;12.50;76.00
58849;DHT22;44619;51.022;6.818;2023-03-13T07:34:36;12.60;75.70
58849;DHT22;44619;51.022;6.818;2023-03-13T07:37:01;12.60;75.80
58849;DHT22;44619;51.022;6.818;2023-03-13T07:39:27;12.60;75.80
58849;DHT22;44619;51.022;6.818;2023-03-13T07:41:53;12.70;76.30
58849;DHT22;44619;51.022;6.818;2023-03-13T07:44:18;12.70;76.20
58849;DHT22;44619;51.022;6.818;2023-03-13T07:46:44;12.80;76.40
58849;DHT22;44619;51.022;6.818;2023-03-13T07:49:10;12.80;76.30
58849;DHT22;44619;51.022;6.818;2023-03-13T07:51:35;12.90;76.40
58849;DHT22;44619;51.022;6.818;2023-03-13T07:54:01;12.90;76.60
58849;DHT22;44619;51.022;6.818;2023-03-13T07:56:27;13.00;76.50
58849;DHT22;44619;51.022;6.818;2023-03-13T07:58:52;13.00;76.40
58849;DHT22;44619;51.022;6.818;2023-03-13T08:01:22;13.00;76.40
58849;DHT22;44619;51.022;6.818;2023-03-13T08:03:47;13.10;76.60
58849;DHT22;44619;51.022;6.818;2023-03-13T08:06:18;13.10;76.60
58849;DHT22;44619;51.022;6.818;2023-03-13T08:08:45;13.10;76.40
58849;DHT22;44619;51.022;6.818;2023-03-13T08:11:11;13.20;76.40
58849;DHT22;44619;51.022;6.818;2023-03-13T08:13:37;13.20;76.30
58849;DHT22;44619;51.022;6.818;2023-03-13T08:16:13;13.20;76.20
58849;DHT22;44619;51.022;6.818;2023-03-13T08:18:40;13.30;76.30
58849;DHT22;44619;51.022;6.818;2023-03-13T08:21:07;13.30;76.20
58849;DHT22;44619;51.022;6.818;2023-03-13T08:23:33;13.40;76.20
58849;DHT22;44619;51.022;6.818;2023-03-13T08:26:05;13.40;76.10
58849;DHT22;44619;51.022;6.818;2023-03-13T08:28:33;13.40;75.90
58849;DHT22;44619;51.022;6.818;2023-03-13T08:33:33;13.50;75.80
58849;DHT22;44619;51.022;6.818;2023-03-13T08:36:05;13.50;75.80
58849;DHT22;44619;51.022;6.818;2023-03-13T08:38:31;13.50;75.80
58849;DHT22;44619;51.022;6.818;2023-03-13T08:40:57;13.50;75.70
58849;DHT22;44619;51.022;6.818;2023-03-13T08:43:22;13.60;75.70
58849;DHT22;44619;51.022;6.818;2023-03-13T08:45:58;13.60;75.70
58849;DHT22;44619;51.022;6.818;2023-03-13T08:48:23;13.60;75.70
58849;DHT22;44619;51.022;6.818;2023-03-13T08:51:02;13.70;75.70
58849;DHT22;44619;51.022;6.818;2023-03-13T08:53:28;13.70;75.60
58849;DHT22;44619;51.022;6.818;2023-03-13T08:55:54;13.80;75.60
58849;DHT22;44619;51.022;6.818;2023-03-13T08:58:20;13.80;75.50
58849;DHT22;44619;51.022;6.818;2023-03-13T09:00:46;13.80;75.90
58849;DHT22;44619;51.022;6.818;2023-03-13T09:03:11;13.90;75.60
58849;DHT22;44619;51.022;6.818;2023-03-13T09:05:37;14.00;75.40
58849;DHT22;44619;51.022;6.818;2023-03-13T09:08:03;14.00;75.50
58849;DHT22;44619;51.022;6.818;2023-03-13T09:10:28;14.00;75.50
58849;DHT22;44619;51.022;6.818;2023-03-13T09:12:54;14.10;75.60
58849;DHT22;44619;51.022;6.818;2023-03-13T09:15:19;14.00;76.40
58849;DHT22;44619;51.022;6.818;2023-03-13T09:17:45;14.10;76.10
58849;DHT22;44619;51.022;6.818;2023-03-13T09:20:11;14.20;76.10
58849;DHT22;44619;51.022;6.818;2023-03-13T09:22:36;14.30;75.80
58849;DHT22;44619;51.022;6.818;2023-03-13T09:25:02;14.30;75.60
58849;DHT22;44619;51.022;6.818;2023-03-13T09:27:27;14.40;75.60
58849;DHT22;44619;51.022;6.818;2023-03-13T09:29:53;14.40;75.70
58849;DHT22;44619;51.022;6.818;2023-03-13T09:32:19;14.40;75.50
58849;DHT22;44619;51.022;6.818;2023-03-13T09:34:45;14.50;75.30
58849;DHT22;44619;51.022;6.818;2023-03-13T09:37:10;14.60;75.00
58849;DHT22;44619;51.022;6.818;2023-03-13T09:39:36;14.60;75.00
58849;DHT22;44619;51.022;6.818;2023-03-13T09:42:04;14.60;74.90
58849;DHT22;44619;51.022;6.818;2023-03-13T09:44:53;14.70;74.70
58849;DHT22;44619;51.022;6.818;2023-03-13T09:47:24;14.90;74.50
58849;DHT22;44619;51.022;6.818;2023-03-13T09:49:56;15.00;74.30
58849;DHT22;44619;51.022;6.818;2023-03-13T09:52:24;15.10;74.10
58849;DHT22;44619;51.022;6.818;2023-03-13T10:00:03;15.30;74.10
58849;DHT22;44619;51.022;6.818;2023-03-13T10:02:32;15.40;74.20
58849;DHT22;44619;51.022;6.818;2023-03-13T10:05:01;15.50;74.20
58849;DHT22;44619;51.022;6.818;2023-03-13T10:07:27;15.60;74.20
58849;DHT22;44619;51.022;6.818;2023-03-13T10:09:53;15.60;74.00
58849;DHT22;44619;51.022;6.818;2023-03-13T10:12:20;15.70;73.90
58849;DHT22;44619;51.022;6.818;2023-03-13T10:22:47;16.00;73.70
58849;DHT22;44619;51.022;6.818;2023-03-13T10:27:51;16.10;73.50
58849;DHT22;44619;51.022;6.818;2023-03-13T10:30:28;16.10;73.50
58849;DHT22;44619;51.022;6.818;2023-03-13T10:33:17;16.20;73.60
58849;DHT22;44619;51.022;6.818;2023-03-13T10:35:40;16.30;73.60
58849;DHT22;44619;51.022;6.818;2023-03-13T10:38:13;16.30;73.60
58849;DHT22;44619;51.022;6.818;2023-03-13T10:40:39;16.40;73.40
58849;DHT22;44619;51.022;6.818;2023-03-13T10:43:17;16.40;73.30
58849;DHT22;44619;51.022;6.818;2023-03-13T10:45:43;16.50;73.30
58849;DHT22;44619;51.022;6.818;2023-03-13T10:48:18;16.50;73.00
58849;DHT22;44619;51.022;6.818;2023-03-13T10:50:45;16.60;73.00
58849;DHT22;44619;51.022;6.818;2023-03-13T10:58:39;16.80;72.80
58849;DHT22;44619;51.022;6.818;2023-03-13T11:01:21;16.90;72.60
58849;DHT22;44619;51.022;6.818;2023-03-13T11:03:48;17.00;72.50
58849;DHT22;44619;51.022;6.818;2023-03-13T11:08:49;17.10;72.20
58849;DHT22;44619;51.022;6.818;2023-03-13T11:11:18;17.20;72.20
58849;DHT22;44619;51.022;6.818;2023-03-13T11:13:44;17.30;71.90
58849;DHT22;44619;51.022;6.818;2023-03-13T11:21:31;17.50;71.60
58849;DHT22;44619;51.022;6.818;2023-03-13T11:24:49;17.60;71.50
58849;DHT22;44619;51.022;6.818;2023-03-13T11:29:34;17.70;71.10
58849;DHT22;44619;51.022;6.818;2023-03-13T11:32:04;17.70;70.80
58849;DHT22;44619;51.022;6.818;2023-03-13T11:34:43;17.80;70.50
58849;DHT22;44619;51.022;6.818;2023-03-13T11:37:12;17.80;70.70
58849;DHT22;44619;51.022;6.818;2023-03-13T11:39:46;17.90;70.50
58849;DHT22;44619;51.022;6.818;2023-03-13T11:52:21;18.30;70.20
58849;DHT22;44619;51.022;6.818;2023-03-13T11:57:34;18.60;69.20
58849;DHT22;44619;51.022;6.818;2023-03-13T12:02:32;19.00;69.30
58849;DHT22;44619;51.022;6.818;2023-03-13T12:05:04;19.20;69.00
58849;DHT22;44619;51.022;6.818;2023-03-13T12:07:33;19.30;68.30
58849;DHT22;44619;51.022;6.818;2023-03-13T12:12:48;19.50;67.40
58849;DHT22;44619;51.022;6.818;2023-03-13T12:15:21;19.50;67.00
58849;DHT22;44619;51.022;6.818;2023-03-13T12:17:48;19.50;67.30
58849;DHT22;44619;51.022;6.818;2023-03-13T12:25:17;19.70;65.90
58849;DHT22;44619;51.022;6.818;2023-03-13T12:27:49;19.70;66.20
58849;DHT22;44619;51.022;6.818;2023-03-13T12:35:31;20.20;66.60
58849;DHT22;44619;51.022;6.818;2023-03-13T12:43:00;20.60;65.80
58849;DHT22;44619;51.022;6.818;2023-03-13T12:45:26;20.80;65.00
58849;DHT22;44619;51.022;6.818;2023-03-13T12:58:11;21.10;63.90
58849;DHT22;44619;51.022;6.818;2023-03-13T13:00:40;21.10;63.10
58849;DHT22;44619;51.022;6.818;2023-03-13T13:06:24;21.10;62.10
58849;DHT22;44619;51.022;6.818;2023-03-13T13:08:38;21.20;61.80
58849;DHT22;44619;51.022;6.818;2023-03-13T13:13:53;21.10;59.90
58849;DHT22;44619;51.022;6.818;2023-03-13T13:16:19;21.20;61.20
58849;DHT22;44619;51.022;6.818;2023-03-13T13:18:46;21.20;61.10
58849;DHT22;44619;51.022;6.818;2023-03-13T13:23:41;21.30;60.60
58849;DHT22;44619;51.022;6.818;2023-03-13T13:28:56;21.40;60.10
58849;DHT22;44619;51.022;6.818;2023-03-13T13:34:07;21.40;59.70
58849;DHT22;44619;51.022;6.818;2023-03-13T13:36:39;21.40;59.10
58849;DHT22;44619;51.022;6.818;2023-03-13T13:39:19;21.30;58.80
58849;DHT22;44619;51.022;6.818;2023-03-13T13:41:45;21.10;58.40
58849;DHT22;44619;51.022;6.818;2023-03-13T13:44:21;21.10;58.40
58849;DHT22;44619;51.022;6.818;2023-03-13T13:46:47;21.10;58.00
58849;DHT22;44619;51.022;6.818;2023-03-13T13:49:20;21.10;58.70
58849;DHT22;44619;51.022;6.818;2023-03-13T13:54:29;21.10;57.40
58849;DHT22;44619;51.022;6.818;2023-03-13T13:56:57;21.10;57.60
58849;DHT22;44619;51.022;6.818;2023-03-13T13:59:43;21.20;57.80
58849;DHT22;44619;51.022;6.818;2023-03-13T14:02:14;21.20;58.20
58849;DHT22;44619;51.022;6.818;2023-03-13T14:07:36;21.10;57.30
58849;DHT22;44619;51.022;6.818;2023-03-13T14:12:36;21.20;58.10
58849;DHT22;44619;51.022;6.818;2023-03-13T14:17:36;21.30;57.30
58849;DHT22;44619;51.022;6.818;2023-03-13T14:20:02;21.40;57.20
58849;DHT22;44619;51.022;6.818;2023-03-13T14:22:43;21.50;57.00
58849;DHT22;44619;51.022;6.818;2023-03-13T14:25:08;21.60;57.10
58849;DHT22;44619;51.022;6.818;2023-03-13T14:27:34;21.70;56.60
58849;DHT22;44619;51.022;6.818;2023-03-13T14:30:07;21.70;56.30
58849;DHT22;44619;51.022;6.818;2023-03-13T14:32:33;21.80;56.20
58849;DHT22;44619;51.022;6.818;2023-03-13T14:35:00;21.70;56.50
58849;DHT22;44619;51.022;6.818;2023-03-13T14:37:35;21.60;56.20
58849;DHT22;44619;51.022;6.818;2023-03-13T14:40:07;21.50;55.40
58849;DHT22;44619;51.022;6.818;2023-03-13T14:42:42;21.50;56.00
58849;DHT22;44619;51.022;6.818;2023-03-13T14:45:52;21.50;56.00
58849;DHT22;44619;51.022;6.818;2023-03-13T14:48:03;21.50;55.60
58849;DHT22;44619;51.022;6.818;2023-03-13T14:50:29;21.40;55.30
58849;DHT22;44619;51.022;6.818;2023-03-13T14:53:00;21.50;56.00
58849;DHT22;44619;51.022;6.818;2023-03-13T14:55:31;21.40;55.60
58849;DHT22;44619;51.022;6.818;2023-03-13T15:03:42;21.20;55.80
58849;DHT22;44619;51.022;6.818;2023-03-13T15:05:48;21.20;56.00
58849;DHT22;44619;51.022;6.818;2023-03-13T15:08:18;21.20;55.90
58849;DHT22;44619;51.022;6.818;2023-03-13T15:10:45;21.10;56.40
58849;DHT22;44619;51.022;6.818;2023-03-13T15:13:15;21.00;55.90
58849;DHT22;44619;51.022;6.818;2023-03-13T15:15:41;21.00;56.70
58849;DHT22;44619;51.022;6.818;2023-03-13T15:20:49;21.10;56.10
58849;DHT22;44619;51.022;6.818;2023-03-13T15:23:15;21.10;56.40
58849;DHT22;44619;51.022;6.818;2023-03-13T15:25:41;21.00;55.60
58849;DHT22;44619;51.022;6.818;2023-03-13T15:28:22;20.90;55.80
58849;DHT22;44619;51.022;6.818;2023-03-13T15:30:48;20.80;56.30
58849;DHT22;44619;51.022;6.818;2023-03-13T15:33:17;20.80;56.10
58849;DHT22;44619;51.022;6.818;2023-03-13T15:35:44;20.60;56.00
58849;DHT22;44619;51.022;6.818;2023-03-13T15:38:16;20.60;55.90
58849;DHT22;44619;51.022;6.818;2023-03-13T15:40:42;20.50;55.70
58849;DHT22;44619;51.022;6.818;2023-03-13T15:43:08;20.50;56.30
58849;DHT22;44619;51.022;6.818;2023-03-13T15:45:36;20.60;56.50
58849;DHT22;44619;51.022;6.818;2023-03-13T15:48:08;20.50;55.80
58849;DHT22;44619;51.022;6.818;2023-03-13T15:50:36;20.50;55.40
58849;DHT22;44619;51.022;6.818;2023-03-13T15:53:02;20.50;56.00
58849;DHT22;44619;51.022;6.818;2023-03-13T15:55:30;20.40;56.00
58849;DHT22;44619;51.022;6.818;2023-03-13T15:57:56;20.50;55.80
58849;DHT22;44619;51.022;6.818;2023-03-13T16:00:24;20.70;55.90
58849;DHT22;44619;51.022;6.818;2023-03-13T16:02:53;20.80;56.20
58849;DHT22;44619;51.022;6.818;2023-03-13T16:05:19;20.80;56.60
58849;DHT22;44619;51.022;6.818;2023-03-13T16:07:45;21.00;56.60
58849;DHT22;44619;51.022;6.818;2023-03-13T16:10:16;21.00;56.60
58849;DHT22;44619;51.022;6.818;2023-03-13T16:12:45;21.00;56.80
58849;DHT22;44619;51.022;6.818;2023-03-13T16:15:11;20.90;56.00
58849;DHT22;44619;51.022;6.818;2023-03-13T16:17:38;21.00;56.40
58849;DHT22;44619;51.022;6.818;2023-03-13T16:20:11;20.90;56.60
58849;DHT22;44619;51.022;6.818;2023-03-13T16:22:37;20.80;56.20
58849;DHT22;44619;51.022;6.818;2023-03-13T16:25:02;20.80;56.90
58849;DHT22;44619;51.022;6.818;2023-03-13T16:27:28;20.80;56.70
58849;DHT22;44619;51.022;6.818;2023-03-13T16:29:54;20.70;56.10
58849;DHT22;44619;51.022;6.818;2023-03-13T16:32:20;20.60;56.20
58849;DHT22;44619;51.022;6.818;2023-03-13T16:34:48;20.60;56.00
58849;DHT22;44619;51.022;6.818;2023-03-13T16:37:15;20.70;55.50
58849;DHT22;44619;51.022;6.818;2023-03-13T16:39:43;20.60;56.10
58849;DHT22;44619;51.022;6.818;2023-03-13T16:42:10;20.60;56.10
58849;DHT22;44619;51.022;6.818;2023-03-13T16:44:36;20.50;56.10
58849;DHT22;44619;51.022;6.818;2023-03-13T16:47:02;20.50;56.00
58849;DHT22;44619;51.022;6.818;2023-03-13T16:49:32;20.40;56.30
58849;DHT22;44619;51.022;6.818;2023-03-13T16:51:58;20.30;56.40
58849;DHT22;44619;51.022;6.818;2023-03-13T16:54:25;20.30;56.50
58849;DHT22;44619;51.022;6.818;2023-03-13T16:56:52;20.20;56.60
58849;DHT22;44619;51.022;6.818;2023-03-13T16:59:17;20.00;56.20
58849;DHT22;44619;51.022;6.818;2023-03-13T17:01:44;19.90;56.50
58849;DHT22;44619;51.022;6.818;2023-03-13T17:04:11;19.80;56.40
58849;DHT22;44619;51.022;6.818;2023-03-13T17:06:37;19.70;56.60
58849;DHT22;44619;51.022;6.818;2023-03-13T17:09:10;19.70;56.30
58849;DHT22;44619;51.022;6.818;2023-03-13T17:11:36;19.60;56.10
58849;DHT22;44619;51.022;6.818;2023-03-13T17:14:01;19.60;56.40
58849;DHT22;44619;51.022;6.818;2023-03-13T17:16:41;19.60;56.40
58849;DHT22;44619;51.022;6.818;2023-03-13T17:19:08;19.50;56.60
58849;DHT22;44619;51.022;6.818;2023-03-13T17:21:36;19.40;56.20
58849;DHT22;44619;51.022;6.818;2023-03-13T17:24:02;19.20;56.70
58849;DHT22;44619;51.022;6.818;2023-03-13T17:26:33;19.20;56.50